sensor_id;sensor_type;location;lat;lon;timestamp;temperature;humidity
43528;DHT22;52359;42.658;23.320;2023-04-29T07:06:57;11.40;99.90
43528;DHT22;52359;42.658;23.320;2023-04-29T07:09:24;11.60;99.90
43528;DHT22;52359;42.658;23.320;2023-04-29T07:11:52;11.40;99.90
43528;DHT22;52359;42.658;23.320;2023-04-29T07:14:17;11.40;99.90
43528;DHT22;52359;42.658;23.320;2023-04-29T07:16:43;11.70;99.90
43528;DHT22;52359;42.658;23.320;2023-04-29T07:19:09;12.00;99.90
43528;DHT22;52359;42.658;23.320;2023-04-29T07:21:35;11.80;99.90
43528;DHT22;52359;42.658;23.320;2023-04-29T07:26:29;11.90;99.90
43528;DHT22;52359;42.658;23.320;2023-04-29T07:28:55;12.30;99.90
43528;DHT22;52359;42.658;23.320;2023-04-29T07:31:21;12.40;99.90
43528;DHT22;52359;42.658;23.320;2023-04-29T07:33:46;12.60;99.90
43528;DHT22;52359;42.658;23.320;2023-04-29T07:36:13;12.90;99.90
43528;DHT22;52359;42.658;23.320;2023-04-29T08:03:01;15.40;92.90
43528;DHT22;52359;42.658;23.320;2023-04-29T08:05:27;15.40;93.30
43528;DHT22;52359;42.658;23.320;2023-04-29T08:07:54;15.40;92.20
43528;DHT22;52359;42.658;23.320;2023-04-29T08:10:20;15.30;90.80
43528;DHT22;52359;42.658;23.320;2023-04-29T08:12:47;15.20;90.30
43528;DHT22;52359;42.658;23.320;2023-04-29T08:15:14;15.60;90.70
43528;DHT22;52359;42.658;23.320;2023-04-29T08:17:40;16.00;90.10
43528;DHT22;52359;42.658;23.320;2023-04-29T08:20:06;16.20;88.80
43528;DHT22;52359;42.658;23.320;2023-04-29T08:22:32;16.50;87.30
43528;DHT22;52359;42.658;23.320;2023-04-29T08:24:58;16.10;86.90
43528;DHT22;52359;42.658;23.320;2023-04-29T08:27:24;16.30;88.30
43528;DHT22;52359;42.658;23.320;2023-04-29T08:29:50;16.80;90.50
43528;DHT22;52359;42.658;23.320;2023-04-29T08:32:16;17.10;84.10
43528;DHT22;52359;42.658;23.320;2023-04-29T08:34:41;17.40;81.00
43528;DHT22;52359;42.658;23.320;2023-04-29T08:37:09;17.40;81.70
43528;DHT22;52359;42.658;23.320;2023-04-29T08:39:35;17.30;80.30
43528;DHT22;52359;42.658;23.320;2023-04-29T08:42:07;17.10;79.60
43528;DHT22;52359;42.658;23.320;2023-04-29T08:44:36;17.20;79.70
43528;DHT22;52359;42.658;23.320;2023-04-29T08:47:03;17.60;79.60
43528;DHT22;52359;42.658;23.320;2023-04-29T08:49:29;17.00;76.90
43528;DHT22;52359;42.658;23.320;2023-04-29T08:51:56;17.10;77.10
43528;DHT22;52359;42.658;23.320;2023-04-29T08:54:22;16.90;77.20
43528;DHT22;52359;42.658;23.320;2023-04-29T08:56:49;17.30;79.40
43528;DHT22;52359;42.658;23.320;2023-04-29T08:59:16;17.70;78.80
43528;DHT22;52359;42.658;23.320;2023-04-29T09:01:43;18.00;77.80
43528;DHT22;52359;42.658;23.320;2023-04-29T09:06:50;17.80;86.00
43528;DHT22;52359;42.658;23.320;2023-04-29T09:09:17;18.60;77.60
43528;DHT22;52359;42.658;23.320;2023-04-29T09:11:43;18.70;75.40
43528;DHT22;52359;42.658;23.320;2023-04-29T09:14:08;18.70;74.70
43528;DHT22;52359;42.658;23.320;2023-04-29T09:19:56;18.00;73.00
43528;DHT22;52359;42.658;23.320;2023-04-29T09:22:22;18.40;73.00
43528;DHT22;52359;42.658;23.320;2023-04-29T09:24:48;18.90;72.20
43528;DHT22;52359;42.658;23.320;2023-04-29T09:27:25;19.40;73.10
43528;DHT22;52359;42.658;23.320;2023-04-29T09:30:01;19.30;73.50
43528;DHT22;52359;42.658;23.320;2023-04-29T09:32:27;19.40;74.20
43528;DHT22;52359;42.658;23.320;2023-04-29T09:37:26;19.80;90.80
43528;DHT22;52359;42.658;23.320;2023-04-29T09:39:52;20.10;75.70
43528;DHT22;52359;42.658;23.320;2023-04-29T09:42:18;19.70;74.90
43528;DHT22;52359;42.658;23.320;2023-04-29T09:44:44;19.90;75.20
43528;DHT22;52359;42.658;23.320;2023-04-29T09:49:42;20.60;77.40
43528;DHT22;52359;42.658;23.320;2023-04-29T10:14:21;21.30;78.00
43528;DHT22;52359;42.658;23.320;2023-04-29T10:19:23;21.50;70.90
43528;DHT22;52359;42.658;23.320;2023-04-29T10:21:49;22.00;68.30
43528;DHT22;52359;42.658;23.320;2023-04-29T10:24:18;22.30;65.40
43528;DHT22;52359;42.658;23.320;2023-04-29T10:26:46;22.50;66.40
43528;DHT22;52359;42.658;23.320;2023-04-29T10:29:14;21.90;64.80
43528;DHT22;52359;42.658;23.320;2023-04-29T10:31:42;21.30;64.80
43528;DHT22;52359;42.658;23.320;2023-04-29T10:34:09;20.80;64.70
43528;DHT22;52359;42.658;23.320;2023-04-29T10:39:03;20.60;62.40
43528;DHT22;52359;42.658;23.320;2023-04-29T10:41:42;20.70;63.40
43528;DHT22;52359;42.658;23.320;2023-04-29T10:44:11;21.10;70.60
43528;DHT22;52359;42.658;23.320;2023-04-29T10:46:37;20.40;63.10
43528;DHT22;52359;42.658;23.320;2023-04-29T10:49:04;21.00;62.90
43528;DHT22;52359;42.658;23.320;2023-04-29T10:51:39;20.90;62.70
43528;DHT22;52359;42.658;23.320;2023-04-29T10:54:23;20.60;63.20
43528;DHT22;52359;42.658;23.320;2023-04-29T10:56:51;20.20;65.90
43528;DHT22;52359;42.658;23.320;2023-04-29T11:01:53;20.80;64.10
43528;DHT22;52359;42.658;23.320;2023-04-29T11:04:20;20.70;64.00
43528;DHT22;52359;42.658;23.320;2023-04-29T11:06:49;20.90;65.20
43528;DHT22;52359;42.658;23.320;2023-04-29T11:09:25;21.10;64.20
43528;DHT22;52359;42.658;23.320;2023-04-29T11:12:01;20.80;64.00
43528;DHT22;52359;42.658;23.320;2023-04-29T11:14:42;20.80;61.70
43528;DHT22;52359;42.658;23.320;2023-04-29T11:17:14;20.90;59.80
43528;DHT22;52359;42.658;23.320;2023-04-29T11:19:49;20.20;61.40
43528;DHT22;52359;42.658;23.320;2023-04-29T11:22:25;20.20;62.60
43528;DHT22;52359;42.658;23.320;2023-04-29T11:25:01;20.30;62.10
43528;DHT22;52359;42.658;23.320;2023-04-29T11:30:08;19.90;63.70
43528;DHT22;52359;42.658;23.320;2023-04-29T11:32:35;20.00;65.30
43528;DHT22;52359;42.658;23.320;2023-04-29T11:35:17;19.90;61.60
43528;DHT22;52359;42.658;23.320;2023-04-29T11:37:45;20.00;60.90
43528;DHT22;52359;42.658;23.320;2023-04-29T11:40:12;19.50;61.10
43528;DHT22;52359;42.658;23.320;2023-04-29T11:42:44;19.40;61.90
43528;DHT22;52359;42.658;23.320;2023-04-29T11:45:10;19.30;61.70
43528;DHT22;52359;42.658;23.320;2023-04-29T11:47:36;18.90;62.60
43528;DHT22;52359;42.658;23.320;2023-04-29T11:50:07;19.30;63.40
43528;DHT22;52359;42.658;23.320;2023-04-29T11:52:39;19.20;64.20
43528;DHT22;52359;42.658;23.320;2023-04-29T11:55:09;19.40;68.20
43528;DHT22;52359;42.658;23.320;2023-04-29T11:57:36;19.30;62.90
43528;DHT22;52359;42.658;23.320;2023-04-29T12:00:02;19.40;66.10
43528;DHT22;52359;42.658;23.320;2023-04-29T12:02:33;19.10;62.20
43528;DHT22;52359;42.658;23.320;2023-04-29T12:04:59;19.20;62.70
43528;DHT22;52359;42.658;23.320;2023-04-29T12:07:25;19.10;64.20
43528;DHT22;52359;42.658;23.320;2023-04-29T12:09:51;18.90;64.80
43528;DHT22;52359;42.658;23.320;2023-04-29T12:12:17;18.70;65.50
43528;DHT22;52359;42.658;23.320;2023-04-29T12:14:43;18.50;67.30
43528;DHT22;52359;42.658;23.320;2023-04-29T12:17:09;18.50;67.90
43528;DHT22;52359;42.658;23.320;2023-04-29T12:19:35;18.50;68.40
43528;DHT22;52359;42.658;23.320;2023-04-29T12:22:04;18.50;68.40
43528;DHT22;52359;42.658;23.320;2023-04-29T12:24:35;18.50;70.30
43528;DHT22;52359;42.658;23.320;2023-04-29T12:27:02;18.50;70.60
43528;DHT22;52359;42.658;23.320;2023-04-29T12:29:27;18.40;71.60
43528;DHT22;52359;42.658;23.320;2023-04-29T12:31:55;18.50;71.70
43528;DHT22;52359;42.658;23.320;2023-04-29T12:34:31;18.40;71.20
43528;DHT22;52359;42.658;23.320;2023-04-29T12:37:00;18.40;71.10
43528;DHT22;52359;42.658;23.320;2023-04-29T12:39:27;18.30;71.60
43528;DHT22;52359;42.658;23.320;2023-04-29T12:42:00;18.40;70.90
43528;DHT22;52359;42.658;23.320;2023-04-29T12:44:35;18.40;71.80
43528;DHT22;52359;42.658;23.320;2023-04-29T12:47:08;18.40;72.00
43528;DHT22;52359;42.658;23.320;2023-04-29T12:49:35;18.50;74.00
43528;DHT22;52359;42.658;23.320;2023-04-29T12:56:55;18.40;74.70
43528;DHT22;52359;42.658;23.320;2023-04-29T12:59:21;18.60;74.30
43528;DHT22;52359;42.658;23.320;2023-04-29T13:04:13;18.40;73.50
43528;DHT22;52359;42.658;23.320;2023-04-29T13:06:38;18.50;73.60
43528;DHT22;52359;42.658;23.320;2023-04-29T13:09:07;18.50;74.50
43528;DHT22;52359;42.658;23.320;2023-04-29T13:11:36;18.60;73.80
43528;DHT22;52359;42.658;23.320;2023-04-29T13:14:02;18.80;73.20
43528;DHT22;52359;42.658;23.320;2023-04-29T13:16:28;19.20;73.20
43528;DHT22;52359;42.658;23.320;2023-04-29T13:18:54;19.20;73.70
43528;DHT22;52359;42.658;23.320;2023-04-29T13:21:21;19.20;74.60
43528;DHT22;52359;42.658;23.320;2023-04-29T13:23:47;19.20;74.30
43528;DHT22;52359;42.658;23.320;2023-04-29T13:26:13;19.00;74.80
43528;DHT22;52359;42.658;23.320;2023-04-29T13:28:39;19.10;74.00
43528;DHT22;52359;42.658;23.320;2023-04-29T13:31:05;19.40;74.10
43528;DHT22;52359;42.658;23.320;2023-04-29T13:33:31;19.60;72.90
43528;DHT22;52359;42.658;23.320;2023-04-29T13:35:56;19.60;72.20
43528;DHT22;52359;42.658;23.320;2023-04-29T13:38:22;19.20;73.40
43528;DHT22;52359;42.658;23.320;2023-04-29T13:40:47;18.90;74.30
43528;DHT22;52359;42.658;23.320;2023-04-29T18:44:37;14.50;96.50
43528;DHT22;52359;42.658;23.320;2023-04-29T18:47:03;14.30;98.30
43528;DHT22;52359;42.658;23.320;2023-04-29T18:49:31;14.30;97.80
43528;DHT22;52359;42.658;23.320;2023-04-29T18:51:57;14.20;98.00
43528;DHT22;52359;42.658;23.320;2023-04-29T18:54:24;14.20;98.30
43528;DHT22;52359;42.658;23.320;2023-04-29T18:56:50;14.30;99.10
43528;DHT22;52359;42.658;23.320;2023-04-29T19:01:46;14.40;99.90
43528;DHT22;52359;42.658;23.320;2023-04-29T19:04:12;14.30;99.90
43528;DHT22;52359;42.658;23.320;2023-04-29T19:06:38;14.30;99.90
43528;DHT22;52359;42.658;23.320;2023-04-29T19:09:03;14.20;99.90
43528;DHT22;52359;42.658;23.320;2023-04-29T19:11:30;14.20;99.90
43528;DHT22;52359;42.658;23.320;2023-04-29T19:13:56;14.20;99.90
43528;DHT22;52359;42.658;23.320;2023-04-29T19:16:22;14.20;99.90
43528;DHT22;52359;42.658;23.320;2023-04-29T19:18:48;14.10;99.90
43528;DHT22;52359;42.658;23.320;2023-04-29T19:21:14;14.10;99.90
43528;DHT22;52359;42.658;23.320;2023-04-29T19:23:40;14.10;99.90
43528;DHT22;52359;42.658;23.320;2023-04-29T19:26:07;14.00;99.90
43528;DHT22;52359;42.658;23.320;2023-04-29T19:28:33;14.00;99.90
43528;DHT22;52359;42.658;23.320;2023-04-29T19:30:59;13.90;99.90
43528;DHT22;52359;42.658;23.320;2023-04-29T19:33:25;13.90;99.90
43528;DHT22;52359;42.658;23.320;2023-04-29T19:38:17;13.80;99.90
43528;DHT22;52359;42.658;23.320;2023-04-29T19:43:09;13.80;99.90
43528;DHT22;52359;42.658;23.320;2023-04-29T19:48:01;13.60;99.90
43528;DHT22;52359;42.658;23.320;2023-04-29T19:52:57;13.60;99.90
43528;DHT22;52359;42.658;23.320;2023-04-29T19:55:23;13.70;99.90
43528;DHT22;52359;42.658;23.320;2023-04-29T19:57:49;13.70;99.90
43528;DHT22;52359;42.658;23.320;2023-04-29T20:02:42;13.70;99.90
43528;DHT22;52359;42.658;23.320;2023-04-29T20:05:09;13.60;99.90
43528;DHT22;52359;42.658;23.320;2023-04-29T20:07:38;13.60;99.90
